sensor_id;sensor_type;location;lat;lon;timestamp;pressure;altitude;pressure_sealevel;temperature;humidity
14790;BME280;7486;51.010;10.366;2023-02-13T00:00:24;100395.84;;;3.10;82.43
14790;BME280;7486;51.010;10.366;2023-02-13T00:02:50;100376.06;;;3.06;82.25
14790;BME280;7486;51.010;10.366;2023-02-13T00:05:17;100422.88;;;3.36;82.05
14790;BME280;7486;51.010;10.366;2023-02-13T00:07:44;100436.19;;;3.33;81.47
14790;BME280;7486;51.010;10.366;2023-02-13T00:10:11;100354.38;;;2.79;81.92
14790;BME280;7486;51.010;10.366;2023-02-13T00:12:37;100353.13;;;2.84;82.06
14790;BME280;7486;51.010;10.366;2023-02-13T00:15:05;100346.53;;;2.79;81.89
14790;BME280;7486;51.010;10.366;2023-02-13T00:17:32;100324.13;;;2.75;82.01
14790;BME280;7486;51.010;10.366;2023-02-13T00:19:58;100352.06;;;2.99;81.70
14790;BME280;7486;51.010;10.366;2023-02-13T00:22:25;100415.56;;;3.28;82.09
14790;BME280;7486;51.010;10.366;2023-02-13T00:24:52;100361.28;;;2.92;82.00
14790;BME280;7486;51.010;10.366;2023-02-13T00:27:19;100457.25;;;3.44;81.96
14790;BME280;7486;51.010;10.366;2023-02-13T00:29:46;100387.06;;;3.11;81.21
14790;BME280;7486;51.010;10.366;2023-02-13T00:32:13;100431.78;;;3.33;81.33
14790;BME280;7486;51.010;10.366;2023-02-13T00:34:40;100406.84;;;3.15;81.96
14790;BME280;7486;51.010;10.366;2023-02-13T00:37:07;100386.94;;;3.00;81.65
14790;BME280;7486;51.010;10.366;2023-02-13T00:39:34;100389.91;;;3.08;82.03
14790;BME280;7486;51.010;10.366;2023-02-13T00:42:01;100376.81;;;3.08;81.35
14790;BME280;7486;51.010;10.366;2023-02-13T00:44:28;100386.22;;;3.10;81.77
14790;BME280;7486;51.010;10.366;2023-02-13T00:46:54;100371.25;;;3.00;81.39
14790;BME280;7486;51.010;10.366;2023-02-13T00:49:22;100401.41;;;3.18;81.12
14790;BME280;7486;51.010;10.366;2023-02-13T00:51:49;100349.47;;;2.61;81.21
14790;BME280;7486;51.010;10.366;2023-02-13T00:54:16;100410.50;;;3.00;81.53
14790;BME280;7486;51.010;10.366;2023-02-13T00:56:43;100331.44;;;2.44;81.97
14790;BME280;7486;51.010;10.366;2023-02-13T00:59:12;100188.22;;;1.45;82.33
14790;BME280;7486;51.010;10.366;2023-02-13T01:01:38;100299.34;;;2.03;82.30
14790;BME280;7486;51.010;10.366;2023-02-13T01:04:05;100383.88;;;2.43;82.84
14790;BME280;7486;51.010;10.366;2023-02-13T01:06:32;100369.09;;;2.42;82.80
14790;BME280;7486;51.010;10.366;2023-02-13T01:08:58;100434.69;;;2.78;83.17
14790;BME280;7486;51.010;10.366;2023-02-13T01:11:25;100390.31;;;2.37;83.54
14790;BME280;7486;51.010;10.366;2023-02-13T01:13:54;100448.41;;;2.82;83.62
14790;BME280;7486;51.010;10.366;2023-02-13T01:16:20;100044.78;;;0.51;83.00
14790;BME280;7486;51.010;10.366;2023-02-13T01:18:47;100370.59;;;2.58;82.09
14790;BME280;7486;51.010;10.366;2023-02-13T01:21:19;100435.44;;;2.93;83.07
14790;BME280;7486;51.010;10.366;2023-02-13T01:23:47;100377.19;;;2.64;82.53
14790;BME280;7486;51.010;10.366;2023-02-13T01:26:32;100316.16;;;2.38;82.34
14790;BME280;7486;51.010;10.366;2023-02-13T01:28:58;100358.56;;;2.56;81.40
14790;BME280;7486;51.010;10.366;2023-02-13T01:31:26;100394.06;;;2.73;81.66
14790;BME280;7486;51.010;10.366;2023-02-13T01:33:55;100404.31;;;2.76;81.44
14790;BME280;7486;51.010;10.366;2023-02-13T01:36:23;100414.50;;;2.93;81.76
14790;BME280;7486;51.010;10.366;2023-02-13T01:38:54;100425.59;;;2.96;81.46
14790;BME280;7486;51.010;10.366;2023-02-13T01:41:23;100438.47;;;3.12;81.56
14790;BME280;7486;51.010;10.366;2023-02-13T01:43:53;100335.75;;;2.45;81.18
14790;BME280;7486;51.010;10.366;2023-02-13T01:46:28;100316.59;;;2.45;80.66
14790;BME280;7486;51.010;10.366;2023-02-13T01:49:04;100393.44;;;2.82;80.45
14790;BME280;7486;51.010;10.366;2023-02-13T01:51:34;100328.69;;;2.33;80.34
14790;BME280;7486;51.010;10.366;2023-02-13T01:54:10;100247.56;;;1.83;80.69
14790;BME280;7486;51.010;10.366;2023-02-13T01:56:48;100433.44;;;2.96;80.40
14790;BME280;7486;51.010;10.366;2023-02-13T01:59:26;100333.13;;;2.06;81.91
14790;BME280;7486;51.010;10.366;2023-02-13T02:01:55;100388.03;;;2.33;82.67
14790;BME280;7486;51.010;10.366;2023-02-13T02:04:29;100435.16;;;2.58;83.33
14790;BME280;7486;51.010;10.366;2023-02-13T02:07:02;100350.66;;;2.18;83.42
14790;BME280;7486;51.010;10.366;2023-02-13T02:09:36;100377.19;;;2.51;82.91
14790;BME280;7486;51.010;10.366;2023-02-13T02:12:23;100358.56;;;2.56;82.16
14790;BME280;7486;51.010;10.366;2023-02-13T02:14:53;100382.75;;;2.59;81.75
14790;BME280;7486;51.010;10.366;2023-02-13T02:17:23;100304.06;;;1.98;83.06
14790;BME280;7486;51.010;10.366;2023-02-13T02:38:16;100424.66;;;1.92;87.50
14790;BME280;7486;51.010;10.366;2023-02-13T02:46:12;100419.59;;;2.03;87.10
14790;BME280;7486;51.010;10.366;2023-02-13T02:48:56;100380.16;;;1.52;88.02
14790;BME280;7486;51.010;10.366;2023-02-13T02:52:02;100391.50;;;1.66;88.02
14790;BME280;7486;51.010;10.366;2023-02-13T02:54:34;100416.31;;;1.73;88.88
14790;BME280;7486;51.010;10.366;2023-02-13T02:57:12;100365.63;;;1.48;88.82
14790;BME280;7486;51.010;10.366;2023-02-13T02:59:42;100384.78;;;1.76;88.40
14790;BME280;7486;51.010;10.366;2023-02-13T03:02:11;100357.31;;;1.83;87.61
14790;BME280;7486;51.010;10.366;2023-02-13T03:04:45;100353.38;;;1.90;86.77
14790;BME280;7486;51.010;10.366;2023-02-13T03:07:16;100319.59;;;1.60;86.25
14790;BME280;7486;51.010;10.366;2023-02-13T03:09:47;100413.84;;;2.25;86.19
14790;BME280;7486;51.010;10.366;2023-02-13T03:12:18;100418.47;;;2.07;86.34
14790;BME280;7486;51.010;10.366;2023-02-13T03:14:47;100378.81;;;1.74;87.06
14790;BME280;7486;51.010;10.366;2023-02-13T03:17:15;100328.72;;;1.40;87.56
14790;BME280;7486;51.010;10.366;2023-02-13T03:19:49;100408.00;;;2.07;87.61
14790;BME280;7486;51.010;10.366;2023-02-13T03:30:20;100411.63;;;2.19;85.71
14790;BME280;7486;51.010;10.366;2023-02-13T03:38:19;100407.13;;;1.94;86.76
14790;BME280;7486;51.010;10.366;2023-02-13T03:41:03;100338.63;;;1.07;88.03
14790;BME280;7486;51.010;10.366;2023-02-13T03:43:38;100414.41;;;1.34;89.41
14790;BME280;7486;51.010;10.366;2023-02-13T03:46:08;100383.75;;;0.95;90.84
14790;BME280;7486;51.010;10.366;2023-02-13T03:48:38;100407.97;;;1.25;91.61
14790;BME280;7486;51.010;10.366;2023-02-13T03:51:07;100154.97;;;-0.32;90.96
14790;BME280;7486;51.010;10.366;2023-02-13T03:53:37;100359.09;;;0.71;92.16
14790;BME280;7486;51.010;10.366;2023-02-13T03:56:07;100346.88;;;0.57;93.12
14790;BME280;7486;51.010;10.366;2023-02-13T03:58:40;100356.94;;;0.77;92.81
14790;BME280;7486;51.010;10.366;2023-02-13T04:01:09;100410.59;;;1.25;92.23
14790;BME280;7486;51.010;10.366;2023-02-13T04:03:50;100270.38;;;0.42;91.88
14790;BME280;7486;51.010;10.366;2023-02-13T04:06:21;100294.25;;;0.93;90.50
14790;BME280;7486;51.010;10.366;2023-02-13T04:08:49;100367.78;;;1.42;89.55
14790;BME280;7486;51.010;10.366;2023-02-13T04:11:21;100403.75;;;1.51;89.12
14790;BME280;7486;51.010;10.366;2023-02-13T04:13:55;100421.94;;;1.52;89.89
14790;BME280;7486;51.010;10.366;2023-02-13T04:16:55;100363.22;;;1.31;89.79
14790;BME280;7486;51.010;10.366;2023-02-13T04:19:24;100411.53;;;1.79;88.62
14790;BME280;7486;51.010;10.366;2023-02-13T04:22:10;100411.28;;;1.70;88.88
14790;BME280;7486;51.010;10.366;2023-02-13T04:24:37;100335.72;;;1.26;88.54
14790;BME280;7486;51.010;10.366;2023-02-13T04:27:04;100349.78;;;1.37;88.67
14790;BME280;7486;51.010;10.366;2023-02-13T04:29:31;100375.66;;;1.69;87.83
14790;BME280;7486;51.010;10.366;2023-02-13T04:31:57;100360.50;;;1.47;88.53
14790;BME280;7486;51.010;10.366;2023-02-13T04:34:24;100282.34;;;0.89;87.93
14790;BME280;7486;51.010;10.366;2023-02-13T04:36:51;100329.72;;;1.38;88.54
14790;BME280;7486;51.010;10.366;2023-02-13T04:39:18;100409.38;;;1.86;88.29
14790;BME280;7486;51.010;10.366;2023-02-13T04:41:44;100330.56;;;1.38;88.19
14790;BME280;7486;51.010;10.366;2023-02-13T04:44:11;100390.22;;;1.58;87.25
14790;BME280;7486;51.010;10.366;2023-02-13T04:46:38;100362.97;;;1.62;87.96
14790;BME280;7486;51.010;10.366;2023-02-13T04:49:04;100377.53;;;1.67;87.88
14790;BME280;7486;51.010;10.366;2023-02-13T04:51:31;100286.06;;;0.99;87.64
14790;BME280;7486;51.010;10.366;2023-02-13T04:53:58;100304.66;;;1.35;87.58
14790;BME280;7486;51.010;10.366;2023-02-13T04:56:24;100314.88;;;1.52;86.53
14790;BME280;7486;51.010;10.366;2023-02-13T04:58:51;100303.72;;;1.36;86.80
14790;BME280;7486;51.010;10.366;2023-02-13T05:01:18;100298.72;;;1.60;86.64
14790;BME280;7486;51.010;10.366;2023-02-13T05:03:45;100334.94;;;1.79;85.56
14790;BME280;7486;51.010;10.366;2023-02-13T05:06:11;100390.59;;;2.20;85.96
14790;BME280;7486;51.010;10.366;2023-02-13T05:08:38;100393.84;;;2.24;84.76
14790;BME280;7486;51.010;10.366;2023-02-13T05:11:06;100291.75;;;1.73;85.01
14790;BME280;7486;51.010;10.366;2023-02-13T05:13:32;100379.81;;;2.12;84.11
14790;BME280;7486;51.010;10.366;2023-02-13T05:16:00;100351.34;;;2.07;84.57
14790;BME280;7486;51.010;10.366;2023-02-13T05:18:27;100390.19;;;2.26;84.05
14790;BME280;7486;51.010;10.366;2023-02-13T05:20:55;100107.00;;;0.29;84.19
14790;BME280;7486;51.010;10.366;2023-02-13T05:23:22;100297.03;;;1.59;84.76
14790;BME280;7486;51.010;10.366;2023-02-13T05:25:49;100357.84;;;2.14;84.74
14790;BME280;7486;51.010;10.366;2023-02-13T05:28:16;100372.50;;;2.17;84.56
14790;BME280;7486;51.010;10.366;2023-02-13T05:30:44;100396.66;;;2.21;84.57
14790;BME280;7486;51.010;10.366;2023-02-13T05:33:12;100388.84;;;2.33;84.29
14790;BME280;7486;51.010;10.366;2023-02-13T05:35:39;100379.03;;;2.37;83.96
14790;BME280;7486;51.010;10.366;2023-02-13T05:38:05;100271.53;;;1.62;83.46
14790;BME280;7486;51.010;10.366;2023-02-13T05:40:32;100351.59;;;2.30;83.43
14790;BME280;7486;51.010;10.366;2023-02-13T05:42:59;100290.03;;;1.99;83.24
14790;BME280;7486;51.010;10.366;2023-02-13T05:45:26;100235.53;;;1.68;82.73
14790;BME280;7486;51.010;10.366;2023-02-13T05:47:53;100270.44;;;1.79;82.17
14790;BME280;7486;51.010;10.366;2023-02-13T05:50:20;100338.91;;;2.11;82.85
14790;BME280;7486;51.010;10.366;2023-02-13T05:52:46;100010.69;;;0.13;82.88
14790;BME280;7486;51.010;10.366;2023-02-13T05:55:13;100336.50;;;2.08;83.25
14790;BME280;7486;51.010;10.366;2023-02-13T05:57:40;100399.25;;;2.47;83.09
14790;BME280;7486;51.010;10.366;2023-02-13T06:00:07;100273.53;;;1.59;83.61
14790;BME280;7486;51.010;10.366;2023-02-13T06:02:34;100292.91;;;1.82;83.74
14790;BME280;7486;51.010;10.366;2023-02-13T06:05:00;100391.78;;;2.29;82.89
14790;BME280;7486;51.010;10.366;2023-02-13T06:07:27;100332.25;;;1.93;83.85
14790;BME280;7486;51.010;10.366;2023-02-13T06:09:54;100393.56;;;2.41;84.06
14790;BME280;7486;51.010;10.366;2023-02-13T06:12:22;100346.56;;;2.14;83.57
14790;BME280;7486;51.010;10.366;2023-02-13T06:14:48;100397.59;;;2.46;83.29
14790;BME280;7486;51.010;10.366;2023-02-13T06:17:15;100404.53;;;2.33;84.13
14790;BME280;7486;51.010;10.366;2023-02-13T06:19:42;100348.16;;;1.90;83.81
14790;BME280;7486;51.010;10.366;2023-02-13T06:22:09;100288.28;;;1.73;83.64
14790;BME280;7486;51.010;10.366;2023-02-13T06:24:36;100292.91;;;1.82;83.80
14790;BME280;7486;51.010;10.366;2023-02-13T06:27:02;100300.50;;;1.99;83.21
14790;BME280;7486;51.010;10.366;2023-02-13T06:29:29;100409.94;;;2.57;82.25
14790;BME280;7486;51.010;10.366;2023-02-13T06:31:56;100350.50;;;2.07;83.22
14790;BME280;7486;51.010;10.366;2023-02-13T06:34:23;100369.81;;;2.31;82.75
14790;BME280;7486;51.010;10.366;2023-02-13T06:36:50;100248.25;;;1.59;82.45
14790;BME280;7486;51.010;10.366;2023-02-13T06:39:18;100324.78;;;2.13;82.91
14790;BME280;7486;51.010;10.366;2023-02-13T06:41:45;100271.38;;;1.78;82.25
14790;BME280;7486;51.010;10.366;2023-02-13T06:44:12;100317.84;;;1.87;82.93
14790;BME280;7486;51.010;10.366;2023-02-13T06:46:38;100365.00;;;2.25;82.67
14790;BME280;7486;51.010;10.366;2023-02-13T06:49:05;100397.31;;;2.37;82.70
14790;BME280;7486;51.010;10.366;2023-02-13T06:51:32;100413.34;;;2.32;83.31
14790;BME280;7486;51.010;10.366;2023-02-13T06:54:24;100365.78;;;2.13;83.15
14790;BME280;7486;51.010;10.366;2023-02-13T06:57:11;100371.78;;;2.28;82.68
14790;BME280;7486;51.010;10.366;2023-02-13T06:59:37;100429.44;;;2.65;82.24
14790;BME280;7486;51.010;10.366;2023-02-13T07:02:05;100334.19;;;2.03;82.12
14790;BME280;7486;51.010;10.366;2023-02-13T07:04:32;100429.00;;;2.72;82.55
14790;BME280;7486;51.010;10.366;2023-02-13T07:07:00;100118.03;;;0.60;81.97
14790;BME280;7486;51.010;10.366;2023-02-13T07:09:27;100434.28;;;2.32;83.52
14790;BME280;7486;51.010;10.366;2023-02-13T07:11:54;100356.91;;;1.89;83.66
14790;BME280;7486;51.010;10.366;2023-02-13T07:14:20;100440.75;;;2.12;84.48
14790;BME280;7486;51.010;10.366;2023-02-13T07:16:47;100451.44;;;2.36;84.40
14790;BME280;7486;51.010;10.366;2023-02-13T07:19:14;100307.88;;;1.53;84.77
14790;BME280;7486;51.010;10.366;2023-02-13T07:21:41;100324.91;;;1.85;84.22
14790;BME280;7486;51.010;10.366;2023-02-13T07:24:08;100387.97;;;2.20;83.45
14790;BME280;7486;51.010;10.366;2023-02-13T07:26:35;100442.50;;;2.65;83.39
14790;BME280;7486;51.010;10.366;2023-02-13T07:29:02;100120.41;;;0.78;83.18
14790;BME280;7486;51.010;10.366;2023-02-13T07:31:39;100451.34;;;2.90;82.89
14790;BME280;7486;51.010;10.366;2023-02-13T07:34:24;100390.31;;;2.37;82.52
14790;BME280;7486;51.010;10.366;2023-02-13T07:36:51;100314.75;;;2.07;82.21
14790;BME280;7486;51.010;10.366;2023-02-13T07:39:19;100464.31;;;2.91;82.25
14790;BME280;7486;51.010;10.366;2023-02-13T07:41:49;100382.13;;;2.56;82.22
14790;BME280;7486;51.010;10.366;2023-02-13T07:44:17;100407.66;;;2.78;82.26
14790;BME280;7486;51.010;10.366;2023-02-13T07:46:43;100453.03;;;2.91;82.04
14790;BME280;7486;51.010;10.366;2023-02-13T07:49:10;100419.84;;;2.39;83.07
14790;BME280;7486;51.010;10.366;2023-02-13T07:51:37;100477.09;;;2.83;83.29
14790;BME280;7486;51.010;10.366;2023-02-13T07:54:04;100240.50;;;1.31;83.31
14790;BME280;7486;51.010;10.366;2023-02-13T07:56:30;100370.28;;;2.11;84.50
14790;BME280;7486;51.010;10.366;2023-02-13T07:58:57;100147.34;;;0.78;83.88
14790;BME280;7486;51.010;10.366;2023-02-13T08:01:24;100406.69;;;2.53;83.43
14790;BME280;7486;51.010;10.366;2023-02-13T08:03:51;100362.53;;;2.36;82.76
14790;BME280;7486;51.010;10.366;2023-02-13T08:06:19;100392.72;;;2.67;82.44
14790;BME280;7486;51.010;10.366;2023-02-13T08:08:46;100232.28;;;1.64;82.38
14790;BME280;7486;51.010;10.366;2023-02-13T08:11:42;100430.06;;;2.82;82.76
14790;BME280;7486;51.010;10.366;2023-02-13T08:14:08;100363.75;;;2.43;82.93
14790;BME280;7486;51.010;10.366;2023-02-13T08:16:35;100370.03;;;2.28;83.85
14790;BME280;7486;51.010;10.366;2023-02-13T08:19:02;100320.97;;;2.19;82.98
14790;BME280;7486;51.010;10.366;2023-02-13T08:21:29;100434.38;;;2.95;82.94
14790;BME280;7486;51.010;10.366;2023-02-13T08:23:56;100354.06;;;2.45;83.06
14790;BME280;7486;51.010;10.366;2023-02-13T08:26:22;100352.22;;;2.33;83.26
14790;BME280;7486;51.010;10.366;2023-02-13T08:28:50;100240.56;;;1.71;82.79
14790;BME280;7486;51.010;10.366;2023-02-13T08:31:16;100321.47;;;2.37;82.47
14790;BME280;7486;51.010;10.366;2023-02-13T08:33:43;100366.09;;;2.60;82.70
14790;BME280;7486;51.010;10.366;2023-02-13T08:36:10;100432.94;;;3.04;82.97
14790;BME280;7486;51.010;10.366;2023-02-13T08:38:37;100437.31;;;3.03;82.33
14790;BME280;7486;51.010;10.366;2023-02-13T08:41:03;100353.84;;;2.48;82.76
14790;BME280;7486;51.010;10.366;2023-02-13T08:43:30;100396.88;;;2.70;82.86
14790;BME280;7486;51.010;10.366;2023-02-13T08:45:58;100440.78;;;3.04;83.15
14790;BME280;7486;51.010;10.366;2023-02-13T08:48:26;100457.34;;;3.17;82.80
14790;BME280;7486;51.010;10.366;2023-02-13T08:50:53;100173.69;;;1.41;82.51
14790;BME280;7486;51.010;10.366;2023-02-13T08:53:19;100419.50;;;3.08;81.29
14790;BME280;7486;51.010;10.366;2023-02-13T08:55:55;100447.81;;;2.91;82.54
14790;BME280;7486;51.010;10.366;2023-02-13T08:58:23;100409.63;;;2.61;84.93
14790;BME280;7486;51.010;10.366;2023-02-13T09:00:50;100400.44;;;2.69;84.57
14790;BME280;7486;51.010;10.366;2023-02-13T09:03:17;100389.25;;;2.67;84.11
14790;BME280;7486;51.010;10.366;2023-02-13T09:05:46;100421.41;;;2.94;83.56
14790;BME280;7486;51.010;10.366;2023-02-13T09:08:13;100237.53;;;1.77;83.54
14790;BME280;7486;51.010;10.366;2023-02-13T09:10:42;100416.97;;;2.82;83.76
14790;BME280;7486;51.010;10.366;2023-02-13T09:13:09;100355.94;;;2.69;84.27
14790;BME280;7486;51.010;10.366;2023-02-13T09:15:39;100358.34;;;2.84;83.44
14790;BME280;7486;51.010;10.366;2023-02-13T09:18:06;100370.72;;;3.07;83.33
14790;BME280;7486;51.010;10.366;2023-02-13T09:20:33;100393.22;;;3.23;83.01
14790;BME280;7486;51.010;10.366;2023-02-13T09:23:01;100380.88;;;3.37;82.37
14790;BME280;7486;51.010;10.366;2023-02-13T09:25:28;100260.00;;;2.56;81.83
14790;BME280;7486;51.010;10.366;2023-02-13T09:27:55;100388.09;;;3.34;81.61
14790;BME280;7486;51.010;10.366;2023-02-13T09:30:21;100346.00;;;3.11;81.54
14790;BME280;7486;51.010;10.366;2023-02-13T09:32:52;100382.44;;;3.27;81.69
14790;BME280;7486;51.010;10.366;2023-02-13T09:35:21;100442.41;;;3.81;83.03
14790;BME280;7486;51.010;10.366;2023-02-13T09:37:48;100347.47;;;3.28;82.63
14790;BME280;7486;51.010;10.366;2023-02-13T09:43:04;100403.63;;;4.09;82.27
14790;BME280;7486;51.010;10.366;2023-02-13T09:45:31;100399.38;;;4.20;80.33
14790;BME280;7486;51.010;10.366;2023-02-13T09:47:58;100292.94;;;3.93;80.70
14790;BME280;7486;51.010;10.366;2023-02-13T09:50:29;100441.72;;;4.85;79.29
14790;BME280;7486;51.010;10.366;2023-02-13T09:52:57;100367.69;;;4.68;77.91
14790;BME280;7486;51.010;10.366;2023-02-13T09:55:46;100367.22;;;4.75;76.16
14790;BME280;7486;51.010;10.366;2023-02-13T09:58:30;100437.03;;;4.77;75.55
14790;BME280;7486;51.010;10.366;2023-02-13T10:01:02;100433.13;;;4.83;76.07
14790;BME280;7486;51.010;10.366;2023-02-13T10:03:42;100446.88;;;4.86;75.32
14790;BME280;7486;51.010;10.366;2023-02-13T10:06:25;100329.34;;;4.09;75.59
14790;BME280;7486;51.010;10.366;2023-02-13T10:09:15;100451.09;;;4.76;77.34
14790;BME280;7486;51.010;10.366;2023-02-13T10:17:44;100393.03;;;4.92;76.53
14790;BME280;7486;51.010;10.366;2023-02-13T10:20:36;100395.19;;;4.98;75.21
14790;BME280;7486;51.010;10.366;2023-02-13T10:25:51;100403.13;;;5.64;75.45
14790;BME280;7486;51.010;10.366;2023-02-13T10:28:41;100435.66;;;6.06;73.45
14790;BME280;7486;51.010;10.366;2023-02-13T10:31:18;100434.88;;;5.95;73.02
14790;BME280;7486;51.010;10.366;2023-02-13T10:33:57;100437.00;;;6.01;71.19
14790;BME280;7486;51.010;10.366;2023-02-13T10:36:30;100401.69;;;5.49;72.57
14790;BME280;7486;51.010;10.366;2023-02-13T10:46:50;100430.81;;;5.80;72.19
14790;BME280;7486;51.010;10.366;2023-02-13T10:49:30;100427.09;;;5.82;73.37
14790;BME280;7486;51.010;10.366;2023-02-13T10:55:13;100426.28;;;5.82;72.28
14790;BME280;7486;51.010;10.366;2023-02-13T11:00:50;100418.13;;;5.96;71.54
14790;BME280;7486;51.010;10.366;2023-02-13T11:03:21;100410.66;;;6.12;70.75
14790;BME280;7486;51.010;10.366;2023-02-13T11:05:50;100416.78;;;6.12;69.58
14790;BME280;7486;51.010;10.366;2023-02-13T11:08:32;100380.63;;;6.14;70.39
14790;BME280;7486;51.010;10.366;2023-02-13T11:11:00;100340.88;;;5.54;69.55
14790;BME280;7486;51.010;10.366;2023-02-13T11:13:28;100392.84;;;5.50;71.43
14790;BME280;7486;51.010;10.366;2023-02-13T11:16:08;100398.09;;;6.15;71.23
14790;BME280;7486;51.010;10.366;2023-02-13T11:18:37;100342.72;;;5.85;69.83
14790;BME280;7486;51.010;10.366;2023-02-13T11:21:22;100402.44;;;6.37;69.10
14790;BME280;7486;51.010;10.366;2023-02-13T11:24:24;100353.66;;;6.01;68.49
14790;BME280;7486;51.010;10.366;2023-02-13T11:27:00;100398.63;;;6.30;69.07
14790;BME280;7486;51.010;10.366;2023-02-13T11:29:30;100398.44;;;6.54;69.02
14790;BME280;7486;51.010;10.366;2023-02-13T11:34:39;100387.31;;;6.50;69.42
14790;BME280;7486;51.010;10.366;2023-02-13T11:39:39;100321.03;;;6.25;67.82
14790;BME280;7486;51.010;10.366;2023-02-13T11:42:31;100383.31;;;6.56;69.40
14790;BME280;7486;51.010;10.366;2023-02-13T11:45:14;100380.63;;;6.46;69.88
14790;BME280;7486;51.010;10.366;2023-02-13T11:47:46;100352.88;;;6.42;69.48
14790;BME280;7486;51.010;10.366;2023-02-13T11:50:31;100380.47;;;6.80;68.99
14790;BME280;7486;51.010;10.366;2023-02-13T11:53:06;100378.47;;;6.93;67.81
14790;BME280;7486;51.010;10.366;2023-02-13T11:55:35;100377.47;;;6.84;67.45
14790;BME280;7486;51.010;10.366;2023-02-13T11:58:04;100371.47;;;6.82;67.46
14790;BME280;7486;51.010;10.366;2023-02-13T12:00:47;100174.75;;;5.60;68.13
14790;BME280;7486;51.010;10.366;2023-02-13T12:08:37;100318.50;;;6.85;67.43
14790;BME280;7486;51.010;10.366;2023-02-13T12:13:50;100257.00;;;6.45;67.10
14790;BME280;7486;51.010;10.366;2023-02-13T12:16:52;100354.38;;;7.37;66.79
14790;BME280;7486;51.010;10.366;2023-02-13T12:19:34;100352.91;;;7.54;66.21
14790;BME280;7486;51.010;10.366;2023-02-13T12:36:20;100336.19;;;7.84;64.78
14790;BME280;7486;51.010;10.366;2023-02-13T12:39:10;100332.41;;;7.67;64.85
14790;BME280;7486;51.010;10.366;2023-02-13T12:45:10;100248.75;;;7.19;65.98
14790;BME280;7486;51.010;10.366;2023-02-13T12:50:42;100295.72;;;7.54;64.85
14790;BME280;7486;51.010;10.366;2023-02-13T12:53:45;100283.88;;;7.30;63.78
14790;BME280;7486;51.010;10.366;2023-02-13T12:56:45;100288.94;;;7.52;65.46
14790;BME280;7486;51.010;10.366;2023-02-13T13:16:13;100279.94;;;8.31;63.23
14790;BME280;7486;51.010;10.366;2023-02-13T13:19:47;100314.13;;;8.23;63.24
14790;BME280;7486;51.010;10.366;2023-02-13T13:27:29;100222.44;;;7.48;63.72
14790;BME280;7486;51.010;10.366;2023-02-13T13:30:02;100147.47;;;7.12;62.89
14790;BME280;7486;51.010;10.366;2023-02-13T13:32:31;100067.75;;;6.51;63.56
14790;BME280;7486;51.010;10.366;2023-02-13T13:35:01;100255.50;;;7.62;62.93
14790;BME280;7486;51.010;10.366;2023-02-13T13:37:45;100249.94;;;7.46;62.12
14790;BME280;7486;51.010;10.366;2023-02-13T13:40:37;100233.13;;;7.47;62.15
14790;BME280;7486;51.010;10.366;2023-02-13T13:51:32;100280.50;;;7.96;62.95
14790;BME280;7486;51.010;10.366;2023-02-13T14:05:18;100272.31;;;7.80;63.66
14790;BME280;7486;51.010;10.366;2023-02-13T14:07:49;100176.34;;;7.33;63.34
14790;BME280;7486;51.010;10.366;2023-02-13T14:12:48;100267.88;;;8.19;62.35
14790;BME280;7486;51.010;10.366;2023-02-13T14:23:23;100181.19;;;7.95;61.85
14790;BME280;7486;51.010;10.366;2023-02-13T14:26:12;100267.66;;;8.49;62.13
14790;BME280;7486;51.010;10.366;2023-02-13T14:31:28;100198.69;;;8.25;61.39
14790;BME280;7486;51.010;10.366;2023-02-13T14:34:04;100261.00;;;8.55;60.52
14790;BME280;7486;51.010;10.366;2023-02-13T14:36:37;100184.09;;;8.02;61.05
14790;BME280;7486;51.010;10.366;2023-02-13T14:41:44;100252.88;;;8.76;61.56
14790;BME280;7486;51.010;10.366;2023-02-13T14:44:31;100248.16;;;8.69;60.58
14790;BME280;7486;51.010;10.366;2023-02-13T14:47:02;100244.28;;;8.64;60.84
14790;BME280;7486;51.010;10.366;2023-02-13T14:49:35;100194.06;;;8.27;61.78
14790;BME280;7486;51.010;10.366;2023-02-13T14:52:14;100196.84;;;8.35;59.63
14790;BME280;7486;51.010;10.366;2023-02-13T14:54:58;100240.41;;;8.58;60.77
14790;BME280;7486;51.010;10.366;2023-02-13T14:59:56;100230.97;;;8.46;59.88
14790;BME280;7486;51.010;10.366;2023-02-13T15:02:26;100225.75;;;8.27;60.65
14790;BME280;7486;51.010;10.366;2023-02-13T15:05:06;100211.69;;;8.36;61.71
14790;BME280;7486;51.010;10.366;2023-02-13T15:07:39;100223.78;;;8.39;61.68
14790;BME280;7486;51.010;10.366;2023-02-13T15:12:58;100236.63;;;8.14;61.92
14790;BME280;7486;51.010;10.366;2023-02-13T15:15:30;100238.53;;;8.32;62.13
14790;BME280;7486;51.010;10.366;2023-02-13T15:18:00;100167.88;;;7.87;61.54
14790;BME280;7486;51.010;10.366;2023-02-13T15:20:33;100198.41;;;7.99;61.77
14790;BME280;7486;51.010;10.366;2023-02-13T15:23:01;100221.63;;;8.15;61.77
14790;BME280;7486;51.010;10.366;2023-02-13T15:27:55;100138.50;;;7.53;60.93
14790;BME280;7486;51.010;10.366;2023-02-13T15:30:33;100125.41;;;7.61;61.73
14790;BME280;7486;51.010;10.366;2023-02-13T15:33:17;100231.19;;;7.97;61.17
14790;BME280;7486;51.010;10.366;2023-02-13T15:35:45;100138.19;;;7.47;62.93
14790;BME280;7486;51.010;10.366;2023-02-13T15:40:59;100235.38;;;8.09;62.80
14790;BME280;7486;51.010;10.366;2023-02-13T15:43:34;100228.41;;;8.17;62.65
14790;BME280;7486;51.010;10.366;2023-02-13T15:46:16;100229.13;;;8.10;62.62
14790;BME280;7486;51.010;10.366;2023-02-13T15:48:44;100207.72;;;7.94;61.97
14790;BME280;7486;51.010;10.366;2023-02-13T15:51:26;100228.69;;;7.95;62.18
14790;BME280;7486;51.010;10.366;2023-02-13T15:54:06;100227.72;;;7.96;62.54
14790;BME280;7486;51.010;10.366;2023-02-13T15:56:34;100233.28;;;7.93;62.69
14790;BME280;7486;51.010;10.366;2023-02-13T15:59:02;100228.00;;;7.84;63.54
14790;BME280;7486;51.010;10.366;2023-02-13T16:01:29;100171.78;;;7.45;63.07
14790;BME280;7486;51.010;10.366;2023-02-13T16:04:04;100157.78;;;7.25;63.42
14790;BME280;7486;51.010;10.366;2023-02-13T16:06:32;100161.81;;;7.29;63.90